createdAt,value
2022-09-27T00:00:31.382Z,7.60
2022-09-27T00:02:58.122Z,7.18
2022-09-27T00:05:24.631Z,8.07
2022-09-27T00:07:51.178Z,8.75
2022-09-27T00:10:17.779Z,7.63
2022-09-27T00:12:44.348Z,8.90
2022-09-27T00:15:11.032Z,7.03
2022-09-27T00:17:38.895Z,7.57
2022-09-27T00:20:07.499Z,5.20
2022-09-27T00:22:34.630Z,6.50
2022-09-27T00:25:01.211Z,8.60
2022-09-27T00:27:28.013Z,5.22
2022-09-27T00:29:54.593Z,7.82
2022-09-27T00:32:21.294Z,8.32
2022-09-27T00:34:47.792Z,6.63
2022-09-27T00:37:14.313Z,6.70
2022-09-27T00:39:40.859Z,5.63
2022-09-27T00:42:11.955Z,4.95
2022-09-27T00:44:38.752Z,5.13
2022-09-27T00:47:25.188Z,5.78
2022-09-27T00:50:00.137Z,6.13
2022-09-27T00:52:32.531Z,5.90
2022-09-27T00:55:04.625Z,5.18
2022-09-27T00:57:31.400Z,4.43
2022-09-27T01:00:12.223Z,5.25
2022-09-27T01:02:42.954Z,2.90
2022-09-27T01:05:12.508Z,7.13
2022-09-27T01:07:39.013Z,6.10
2022-09-27T01:10:07.254Z,7.30
2022-09-27T01:13:06.683Z,5.88
2022-09-27T01:15:51.316Z,6.07
2022-09-27T01:18:42.151Z,9.30
2022-09-27T01:21:41.678Z,7.93
2022-09-27T01:24:31.295Z,7.55
2022-09-27T01:27:23.923Z,5.80
2022-09-27T01:30:13.390Z,9.77
2022-09-27T01:33:05.135Z,6.32
2022-09-27T01:35:43.794Z,7.88
2022-09-27T01:38:18.400Z,6.65
2022-09-27T01:40:57.828Z,6.97
2022-09-27T01:43:34.380Z,10.88
2022-09-27T01:46:21.389Z,9.50
2022-09-27T01:48:50.776Z,6.82
2022-09-27T01:51:28.124Z,7.80
2022-09-27T01:54:01.142Z,8.65
2022-09-27T01:59:07.502Z,6.25
2022-09-27T02:01:38.581Z,6.25
2022-09-27T02:04:08.816Z,5.45
2022-09-27T02:06:40.057Z,7.38
2022-09-27T02:09:12.224Z,6.32
2022-09-27T02:11:43.484Z,11.90
2022-09-27T02:14:20.029Z,6.85
2022-09-27T02:16:51.783Z,8.05
2022-09-27T02:19:30.996Z,3.78
2022-09-27T02:22:18.813Z,5.50
2022-09-27T02:24:53.342Z,6.72
2022-09-27T02:27:29.616Z,10.68
2022-09-27T02:30:06.165Z,5.47
2022-09-27T02:32:33.555Z,5.03
2022-09-27T02:35:06.014Z,5.05
2022-09-27T02:37:33.428Z,6.50
2022-09-27T02:40:00.765Z,4.35
2022-09-27T02:42:28.474Z,3.47
2022-09-27T02:44:55.104Z,4.57
2022-09-27T02:47:41.062Z,5.13
2022-09-27T02:50:25.687Z,3.85
2022-09-27T02:53:11.472Z,5.45
2022-09-27T02:55:52.233Z,4.25
2022-09-27T02:58:45.107Z,4.30
2022-09-27T03:01:48.920Z,4.80
2022-09-27T03:04:25.685Z,3.47
2022-09-27T03:06:53.760Z,3.17
2022-09-27T03:09:21.524Z,6.60
2022-09-27T03:11:48.298Z,2.72
2022-09-27T03:14:15.276Z,2.97
2022-09-27T03:16:41.834Z,5.15
2022-09-27T03:19:09.768Z,3.15
2022-09-27T03:21:36.347Z,3.22
2022-09-27T03:24:03.471Z,4.00
2022-09-27T03:26:29.994Z,4.07
2022-09-27T03:28:56.519Z,3.25
2022-09-27T03:31:23.029Z,4.38
2022-09-27T03:33:49.598Z,3.78
2022-09-27T03:36:16.201Z,3.47
2022-09-27T03:38:42.718Z,6.15
2022-09-27T03:41:09.384Z,4.78
2022-09-27T03:43:36.082Z,5.07
2022-09-27T03:46:02.631Z,3.08
2022-09-27T03:48:31.215Z,3.72
2022-09-27T03:50:57.774Z,3.70
2022-09-27T03:53:24.744Z,3.90
2022-09-27T03:55:51.256Z,7.22
2022-09-27T03:58:17.764Z,2.90
2022-09-27T04:00:46.269Z,2.90
2022-09-27T04:03:13.563Z,3.38
2022-09-27T04:05:40.137Z,4.38
2022-09-27T04:08:07.950Z,3.40
2022-09-27T04:10:34.495Z,3.88
2022-09-27T04:13:01.049Z,3.53
2022-09-27T04:15:27.642Z,3.58
2022-09-27T04:17:54.179Z,1.88
2022-09-27T04:20:20.732Z,3.80
2022-09-27T04:22:47.335Z,3.42
2022-09-27T04:25:13.957Z,5.47
2022-09-27T04:27:45.795Z,2.92
2022-09-27T04:30:13.493Z,3.13
2022-09-27T04:32:44.854Z,4.03
2022-09-27T04:35:31.506Z,1.58
2022-09-27T04:37:58.471Z,2.97
2022-09-27T04:40:25.470Z,4.75
2022-09-27T04:42:52.292Z,5.22
2022-09-27T04:45:19.699Z,2.90
2022-09-27T04:47:50.297Z,5.82
2022-09-27T04:50:18.352Z,3.20
2022-09-27T04:52:44.909Z,5.13
2022-09-27T04:55:11.455Z,3.25
2022-09-27T04:57:38.042Z,3.25
2022-09-27T05:00:05.285Z,2.50
2022-09-27T05:02:32.043Z,3.42
2022-09-27T05:04:59.288Z,2.40
2022-09-27T05:07:27.123Z,4.05
2022-09-27T05:09:54.017Z,4.15
2022-09-27T05:12:21.170Z,4.05
2022-09-27T05:14:48.085Z,4.78
2022-09-27T05:17:14.790Z,2.95
2022-09-27T05:19:41.280Z,5.07
2022-09-27T05:22:08.121Z,4.78
2022-09-27T05:24:34.811Z,6.05
2022-09-27T05:27:01.965Z,3.97
2022-09-27T05:29:29.053Z,4.18
2022-09-27T05:31:55.542Z,3.47
2022-09-27T05:34:22.475Z,4.63
2022-09-27T05:36:49.911Z,3.45
2022-09-27T05:39:17.363Z,6.65
2022-09-27T05:41:44.232Z,1.00
2022-09-27T05:44:10.827Z,2.00
2022-09-27T05:46:39.122Z,5.25
2022-09-27T05:49:06.165Z,6.32
2022-09-27T05:51:32.728Z,2.30
2022-09-27T05:53:59.522Z,3.30
2022-09-27T05:56:26.398Z,4.78
2022-09-27T05:58:52.935Z,2.80
2022-09-27T06:01:19.520Z,3.90
2022-09-27T06:03:47.277Z,3.83
2022-09-27T06:06:15.629Z,3.10
2022-09-27T06:08:42.196Z,1.75
2022-09-27T06:11:12.484Z,3.03
2022-09-27T06:13:39.650Z,3.47
2022-09-27T06:16:07.512Z,2.50
2022-09-27T06:18:34.515Z,5.15
2022-09-27T06:21:02.487Z,2.03
2022-09-27T06:23:32.655Z,1.75
2022-09-27T06:26:04.975Z,4.03
2022-09-27T06:28:32.662Z,1.65
2022-09-27T06:31:02.099Z,3.28
2022-09-27T06:33:28.798Z,3.28
2022-09-27T06:35:55.626Z,4.95
2022-09-27T06:38:23.174Z,5.22
2022-09-27T06:40:49.736Z,3.22
2022-09-27T06:43:19.894Z,4.20
2022-09-27T06:45:47.356Z,4.25
2022-09-27T06:48:16.167Z,7.25
2022-09-27T06:50:44.602Z,2.55
2022-09-27T06:53:13.730Z,1.92
2022-09-27T06:55:40.971Z,8.13
2022-09-27T06:58:28.936Z,2.17
2022-09-27T07:00:55.486Z,4.10
2022-09-27T07:03:23.981Z,4.75
2022-09-27T07:05:59.105Z,3.05
2022-09-27T07:08:28.786Z,7.70
2022-09-27T07:11:01.008Z,1.90
2022-09-27T07:13:29.769Z,2.13
2022-09-27T07:15:56.251Z,4.15
2022-09-27T07:18:22.860Z,3.75
2022-09-27T07:20:50.853Z,4.00
2022-09-27T07:23:17.438Z,5.80
2022-09-27T07:25:43.991Z,5.80
2022-09-27T07:28:21.004Z,6.10
2022-09-27T07:30:48.838Z,5.80
2022-09-27T07:33:15.609Z,3.92
2022-09-27T07:35:43.775Z,5.20
2022-09-27T07:38:14.109Z,2.50
2022-09-27T07:40:45.237Z,3.55
2022-09-27T07:43:12.438Z,2.83
2022-09-27T07:45:39.058Z,8.95
2022-09-27T07:48:07.377Z,6.55
2022-09-27T07:50:34.181Z,4.28
2022-09-27T07:53:00.993Z,3.47
2022-09-27T07:55:27.566Z,3.83
2022-09-27T07:58:03.813Z,4.28
2022-09-27T08:00:30.581Z,3.45
2022-09-27T08:02:57.188Z,2.25
2022-09-27T08:05:23.769Z,8.85
2022-09-27T08:07:55.619Z,5.00
2022-09-27T08:10:22.098Z,1.75
2022-09-27T08:12:48.611Z,2.65
2022-09-27T08:15:15.244Z,3.83
2022-09-27T08:17:42.204Z,3.05
2022-09-27T08:20:09.233Z,3.15
2022-09-27T08:22:40.973Z,4.47
2022-09-27T08:25:07.925Z,3.10
2022-09-27T08:27:34.459Z,3.95
2022-09-27T08:30:00.928Z,6.57
2022-09-27T08:32:28.841Z,4.00
2022-09-27T08:34:55.338Z,5.78
2022-09-27T08:37:21.834Z,4.93
2022-09-27T08:39:48.436Z,2.03
2022-09-27T08:42:24.165Z,6.18
2022-09-27T08:45:17.744Z,4.40
2022-09-27T08:50:39.016Z,5.45
2022-09-27T08:53:25.319Z,3.17
2022-09-27T08:55:54.921Z,4.20
2022-09-27T08:58:28.605Z,4.43
2022-09-27T09:01:01.648Z,3.30
2022-09-27T09:06:05.042Z,3.33
2022-09-27T09:08:42.948Z,3.78
2022-09-27T09:11:57.425Z,3.33
2022-09-27T09:14:49.002Z,2.28
2022-09-27T09:17:34.061Z,3.45
2022-09-27T09:20:21.920Z,3.70
2022-09-27T09:23:19.072Z,4.18
2022-09-27T09:25:56.957Z,3.92
2022-09-27T09:28:40.640Z,4.68
2022-09-27T09:31:24.061Z,3.15
2022-09-27T09:34:10.247Z,3.25
2022-09-27T09:36:58.989Z,3.20
2022-09-27T09:40:08.886Z,2.92
2022-09-27T09:42:40.346Z,2.78
2022-09-27T09:45:21.180Z,5.25
2022-09-27T09:47:54.837Z,1.33
2022-09-27T09:50:32.845Z,2.78
2022-09-27T09:53:29.569Z,1.85
2022-09-27T09:56:02.640Z,4.05
2022-09-27T10:01:20.044Z,3.53
2022-09-27T10:03:46.979Z,9.00
2022-09-27T10:06:15.983Z,3.85
2022-09-27T10:08:42.907Z,2.65
2022-09-27T10:11:20.312Z,3.33
2022-09-27T10:13:47.556Z,3.28
2022-09-27T10:16:17.225Z,2.65
2022-09-27T10:18:49.694Z,2.97
2022-09-27T10:21:28.113Z,2.42
2022-09-27T10:24:18.429Z,6.35
2022-09-27T10:26:48.503Z,2.85
2022-09-27T10:29:20.938Z,3.65
2022-09-27T10:31:49.158Z,4.03
2022-09-27T10:34:21.566Z,2.95
2022-09-27T10:37:02.786Z,4.55
2022-09-27T10:39:29.297Z,3.47
2022-09-27T10:41:55.821Z,1.88
2022-09-27T10:44:32.620Z,1.92
2022-09-27T10:47:07.588Z,3.35
2022-09-27T10:49:40.131Z,1.58
2022-09-27T10:52:16.035Z,3.30
2022-09-27T10:54:52.107Z,5.28
2022-09-27T10:57:21.783Z,2.90
2022-09-27T10:59:54.926Z,2.53
2022-09-27T11:02:29.780Z,2.10
2022-09-27T11:05:15.341Z,2.33
2022-09-27T11:07:53.478Z,2.05
2022-09-27T11:10:37.379Z,2.10
2022-09-27T11:13:19.517Z,2.38
2022-09-27T11:16:17.475Z,2.60
2022-09-27T11:18:54.847Z,2.10
2022-09-27T11:21:48.183Z,1.23
2022-09-27T11:24:20.842Z,2.20
2022-09-27T11:26:50.373Z,1.95
2022-09-27T11:29:41.796Z,1.73
2022-09-27T11:32:35.530Z,1.70
2022-09-27T11:35:26.859Z,1.67
2022-09-27T11:38:48.120Z,0.55
2022-09-27T11:41:35.238Z,2.63
2022-09-27T11:44:32.810Z,1.30
2022-09-27T11:47:17.114Z,1.35
2022-09-27T11:50:18.732Z,3.08
2022-09-27T11:53:15.138Z,4.32
2022-09-27T11:55:47.247Z,0.65
2022-09-27T11:58:26.407Z,2.08
2022-09-27T12:00:56.851Z,0.60
2022-09-27T12:04:01.067Z,0.40
2022-09-27T12:06:36.805Z,2.03
2022-09-27T12:09:03.275Z,0.77
2022-09-27T12:11:41.463Z,2.20
2022-09-27T12:14:24.629Z,1.65
2022-09-27T12:16:55.641Z,1.05
2022-09-27T12:19:30.506Z,1.55
2022-09-27T12:22:01.038Z,2.00
2022-09-27T12:24:28.328Z,0.90
2022-09-27T12:27:00.318Z,1.00
2022-09-27T12:29:33.954Z,0.55
2022-09-27T12:32:13.629Z,1.73
2022-09-27T12:34:51.891Z,1.05
2022-09-27T12:37:28.182Z,1.00
2022-09-27T12:40:06.386Z,0.68
2022-09-27T12:42:39.347Z,0.82
2022-09-27T12:45:10.919Z,1.23
2022-09-27T12:48:16.425Z,0.63
2022-09-27T12:51:10.553Z,0.73
2022-09-27T12:53:55.492Z,2.25
2022-09-27T12:56:58.088Z,3.15
2022-09-27T12:59:46.278Z,2.38
2022-09-27T13:03:04.047Z,1.98
2022-09-27T13:05:41.567Z,1.15
2022-09-27T13:08:30.005Z,1.45
2022-09-27T13:11:23.498Z,2.70
2022-09-27T13:16:20.951Z,1.70
2022-09-27T13:18:56.283Z,0.85
2022-09-27T13:21:51.140Z,0.60
2022-09-27T13:24:31.253Z,1.15
2022-09-27T13:27:01.550Z,1.55
2022-09-27T13:29:31.761Z,0.57
2022-09-27T13:31:58.619Z,1.27
2022-09-27T13:34:40.941Z,2.42
2022-09-27T13:37:29.208Z,1.85
2022-09-27T13:40:22.525Z,1.08
2022-09-27T13:43:17.732Z,1.30
2022-09-27T13:45:57.713Z,0.88
2022-09-27T13:48:30.641Z,0.63
2022-09-27T13:51:14.676Z,0.32
2022-09-27T13:53:46.658Z,0.45
2022-09-27T13:56:48.283Z,0.50
2022-09-27T13:59:21.029Z,0.52
2022-09-27T14:01:53.169Z,1.13
2022-09-27T14:04:28.397Z,0.83
2022-09-27T14:07:00.405Z,1.38
2022-09-27T14:09:33.763Z,1.35
2022-09-27T14:12:05.399Z,0.55
2022-09-27T14:14:33.480Z,0.38
2022-09-27T14:17:01.343Z,2.08
2022-09-27T14:19:29.071Z,2.03
2022-09-27T14:21:56.888Z,0.40
2022-09-27T14:24:33.417Z,1.70
2022-09-27T14:27:38.266Z,1.70
2022-09-27T14:30:16.070Z,2.50
2022-09-27T14:32:51.330Z,1.20
2022-09-27T14:35:37.679Z,2.17
2022-09-27T14:38:33.081Z,1.88
2022-09-27T14:40:58.573Z,0.80
2022-09-27T14:43:26.135Z,2.72
2022-09-27T14:45:57.971Z,1.73
2022-09-27T14:48:28.932Z,1.67
2022-09-27T14:51:06.203Z,1.45
2022-09-27T14:53:41.183Z,2.25
2022-09-27T14:56:16.255Z,1.02
2022-09-27T14:58:47.784Z,1.55
2022-09-27T15:01:17.247Z,2.72
2022-09-27T15:03:45.711Z,1.45
2022-09-27T15:06:12.902Z,1.65
2022-09-27T15:08:40.253Z,2.28
2022-09-27T15:11:08.097Z,3.03
2022-09-27T15:13:37.542Z,1.55
2022-09-27T15:16:11.151Z,1.60
2022-09-27T15:18:37.631Z,1.67
2022-09-27T15:21:05.862Z,1.95
2022-09-27T15:23:43.520Z,2.17
2022-09-27T15:26:09.992Z,1.92
2022-09-27T15:28:39.353Z,1.92
2022-09-27T15:31:08.177Z,1.58
2022-09-27T15:33:35.862Z,2.40
2022-09-27T15:36:09.048Z,2.17
2022-09-27T15:38:44.232Z,1.85
2022-09-27T15:41:21.140Z,1.33
2022-09-27T15:43:50.207Z,2.25
2022-09-27T15:46:22.980Z,2.40
2022-09-27T15:49:17.875Z,2.15
2022-09-27T15:51:46.391Z,1.45
2022-09-27T15:54:12.988Z,1.33
2022-09-27T15:56:40.061Z,1.23
2022-09-27T15:59:14.087Z,2.08
2022-09-27T16:01:40.674Z,4.47
2022-09-27T16:04:09.115Z,2.22
2022-09-27T16:06:35.801Z,1.27
2022-09-27T16:09:02.307Z,0.88
2022-09-27T16:11:28.825Z,1.55
2022-09-27T16:13:55.334Z,2.10
2022-09-27T16:16:22.840Z,1.58
2022-09-27T16:18:49.670Z,1.75
2022-09-27T16:21:16.472Z,3.03
2022-09-27T16:23:43.048Z,2.45
2022-09-27T16:26:09.549Z,1.35
2022-09-27T16:28:36.152Z,3.05
2022-09-27T16:31:04.938Z,1.95
2022-09-27T16:33:32.785Z,2.72
2022-09-27T16:36:01.431Z,2.67
2022-09-27T16:38:30.356Z,3.08
2022-09-27T16:41:02.301Z,2.58
2022-09-27T16:43:30.280Z,1.85
2022-09-27T16:46:04.471Z,5.43
2022-09-27T16:48:30.962Z,2.60
2022-09-27T16:51:25.718Z,4.15
2022-09-27T16:53:52.266Z,3.85
2022-09-27T16:56:20.219Z,7.65
2022-09-27T16:58:48.007Z,1.95
2022-09-27T17:01:16.840Z,2.10
2022-09-27T17:03:45.442Z,3.45
2022-09-27T17:06:11.921Z,2.33
2022-09-27T17:08:38.520Z,5.03
2022-09-27T17:11:06.447Z,2.55
2022-09-27T17:13:33.753Z,1.83
2022-09-27T17:16:04.233Z,3.97
2022-09-27T17:18:30.903Z,2.50
2022-09-27T17:21:03.394Z,1.38
2022-09-27T17:23:31.409Z,3.50
2022-09-27T17:26:05.557Z,1.60
2022-09-27T17:28:32.132Z,1.40
2022-09-27T17:31:10.011Z,1.75
2022-09-27T17:33:43.416Z,2.42
2022-09-27T17:36:17.407Z,1.33
2022-09-27T17:38:45.244Z,3.40
2022-09-27T17:41:14.805Z,3.00
2022-09-27T17:43:50.246Z,2.08
2022-09-27T17:46:19.152Z,1.15
2022-09-27T17:49:05.197Z,3.33
2022-09-27T17:51:33.203Z,2.35
2022-09-27T17:54:00.218Z,1.65
2022-09-27T17:56:27.121Z,2.70
2022-09-27T17:58:56.116Z,2.70
2022-09-27T18:01:24.633Z,2.08
2022-09-27T18:04:00.698Z,2.60
2022-09-27T18:06:28.360Z,3.00
2022-09-27T18:08:55.984Z,9.30
2022-09-27T18:11:28.510Z,7.80
2022-09-27T18:13:58.745Z,8.55
2022-09-27T18:16:29.653Z,6.60
2022-09-27T18:18:58.055Z,6.05
2022-09-27T18:21:26.815Z,3.75
2022-09-27T18:23:56.647Z,3.20
2022-09-27T18:26:24.195Z,3.30
2022-09-27T18:28:56.021Z,2.03
2022-09-27T18:31:23.617Z,2.58
2022-09-27T18:33:50.586Z,3.38
2022-09-27T18:36:19.055Z,1.85
2022-09-27T18:38:46.991Z,5.13
2022-09-27T18:41:16.094Z,3.63
2022-09-27T18:43:44.809Z,3.85
2022-09-27T18:46:34.532Z,6.57
2022-09-27T18:49:02.361Z,3.55
2022-09-27T18:51:29.235Z,5.82
2022-09-27T18:54:03.965Z,5.05
2022-09-27T18:56:31.174Z,3.00
2022-09-27T18:58:57.932Z,2.42
2022-09-27T19:01:28.123Z,4.43
2022-09-27T19:03:54.671Z,2.22
2022-09-27T19:06:23.580Z,2.63
2022-09-27T19:08:58.792Z,2.17
2022-09-27T19:11:26.779Z,2.45
2022-09-27T19:13:55.347Z,2.60
2022-09-27T19:16:23.490Z,1.98
2022-09-27T19:18:50.822Z,3.20
2022-09-27T19:21:20.504Z,1.98
2022-09-27T19:23:48.862Z,5.82
2022-09-27T19:26:18.482Z,2.78
2022-09-27T19:28:46.537Z,4.68
2022-09-27T19:31:16.322Z,2.45
2022-09-27T19:33:43.323Z,4.70
2022-09-27T19:36:12.147Z,2.92
2022-09-27T19:38:39.413Z,2.25
2022-09-27T19:41:08.240Z,3.08
2022-09-27T19:43:35.116Z,2.60
2022-09-27T19:46:09.099Z,1.55
2022-09-27T19:48:37.005Z,2.67
2022-09-27T19:51:04.098Z,3.17
2022-09-27T19:53:32.419Z,2.33
2022-09-27T19:56:04.394Z,2.80
2022-09-27T19:58:32.487Z,3.03
2022-09-27T20:01:10.033Z,2.55
2022-09-27T20:03:39.062Z,3.85
2022-09-27T20:06:07.749Z,2.15
2022-09-27T20:08:34.843Z,3.45
2022-09-27T20:11:10.049Z,2.10
2022-09-27T20:13:37.822Z,2.60
2022-09-27T20:16:15.782Z,2.10
2022-09-27T20:18:47.498Z,2.90
2022-09-27T20:21:14.986Z,1.50
2022-09-27T20:23:42.172Z,1.85
2022-09-27T20:26:13.995Z,1.73
2022-09-27T20:28:42.910Z,2.83
2022-09-27T20:31:13.196Z,2.60
2022-09-27T20:33:42.688Z,1.70
2022-09-27T20:36:37.332Z,2.97
2022-09-27T20:39:12.187Z,3.40
2022-09-27T20:41:43.609Z,2.38
2022-09-27T20:44:18.375Z,3.97
2022-09-27T20:46:46.215Z,3.90
2022-09-27T20:49:16.036Z,2.20
2022-09-27T20:51:44.195Z,3.65
2022-09-27T20:54:12.672Z,2.35
2022-09-27T20:56:44.545Z,3.88
2022-09-27T20:59:22.343Z,2.85
2022-09-27T21:01:51.354Z,2.88
2022-09-27T21:04:19.238Z,3.25
2022-09-27T21:06:46.051Z,6.38
2022-09-27T21:09:18.731Z,2.10
2022-09-27T21:11:51.771Z,3.75
2022-09-27T21:14:18.554Z,2.35
2022-09-27T21:16:45.296Z,3.30
2022-09-27T21:19:11.876Z,2.60
2022-09-27T21:21:38.387Z,2.75
2022-09-27T21:24:05.336Z,2.55
2022-09-27T21:26:33.351Z,3.20
2022-09-27T21:29:01.581Z,2.40
2022-09-27T21:31:32.468Z,3.22
2022-09-27T21:34:01.132Z,3.58
2022-09-27T21:36:30.251Z,3.47
2022-09-27T21:38:57.227Z,3.70
2022-09-27T21:41:24.208Z,4.57
2022-09-27T21:43:50.828Z,2.72
2022-09-27T21:46:28.438Z,2.90
2022-09-27T21:48:57.499Z,4.82
2022-09-27T21:51:29.754Z,5.07
2022-09-27T21:53:59.055Z,2.83
2022-09-27T21:56:27.945Z,2.33
2022-09-27T21:58:54.447Z,3.08
2022-09-27T22:01:23.492Z,3.08
2022-09-27T22:03:52.011Z,3.47
2022-09-27T22:06:29.291Z,4.05
2022-09-27T22:08:56.817Z,4.82
2022-09-27T22:11:26.104Z,3.65
2022-09-27T22:13:52.873Z,3.13
2022-09-27T22:16:20.958Z,3.47
2022-09-27T22:18:49.888Z,3.08
2022-09-27T22:21:19.927Z,4.47
2022-09-27T22:23:46.480Z,5.38
2022-09-27T22:26:17.048Z,3.63
2022-09-27T22:28:45.135Z,7.43
2022-09-27T22:31:15.238Z,4.35
2022-09-27T22:33:42.958Z,4.80
2022-09-27T22:36:09.470Z,5.10
2022-09-27T22:38:36.056Z,6.47
2022-09-27T22:41:03.540Z,5.03
2022-09-27T22:43:30.699Z,4.85
2022-09-27T22:46:00.220Z,5.80
2022-09-27T22:48:31.147Z,4.70
2022-09-27T22:50:58.936Z,6.18
2022-09-27T22:53:26.912Z,5.55
2022-09-27T22:56:04.101Z,7.38
2022-09-27T22:58:31.621Z,8.63
2022-09-27T23:00:58.138Z,5.03
2022-09-27T23:03:24.918Z,6.60
2022-09-27T23:05:51.471Z,5.95
2022-09-27T23:08:17.996Z,7.45
2022-09-27T23:10:44.480Z,7.82
2022-09-27T23:13:11.011Z,7.35
2022-09-27T23:15:37.555Z,11.85
2022-09-27T23:18:06.285Z,6.20
2022-09-27T23:20:32.786Z,8.73
2022-09-27T23:22:59.332Z,9.30
2022-09-27T23:25:26.009Z,8.57
2022-09-27T23:27:53.467Z,7.90
2022-09-27T23:30:21.599Z,7.43
2022-09-27T23:32:55.644Z,9.25
2022-09-27T23:35:23.144Z,9.02
2022-09-27T23:37:52.886Z,9.90
2022-09-27T23:40:19.427Z,7.75
2022-09-27T23:42:45.951Z,7.10
2022-09-27T23:45:14.237Z,7.70
2022-09-27T23:47:40.745Z,8.18
2022-09-27T23:50:08.206Z,10.30
2022-09-27T23:52:34.721Z,8.15
2022-09-27T23:55:01.194Z,9.48
2022-09-27T23:57:27.699Z,7.85
2022-09-27T23:59:54.173Z,6.72
